Time;durP1;ratioP1;P1;durP2;ratioP2;P2;SDS_P1;SDS_P2;PMS_P1;PMS_P2;Temp;Humidity;BMP_temperature;BMP_pressure;BME280_temperature;BME280_humidity;BME280_pressure;Samples;Min_cycle;Max_cycle;Signal;HPM_P1;HPM_P2
2022/07/29 00:02:21;;;;;;;0.70;0.70;;;20.70;78.00;;;;;;5001063;28;20027;-80
2022/07/29 00:04:46;;;;;;;;;;;20.70;78.30;;;;;;4997336;28;20027;-80
2022/07/29 00:07:12;;;;;;;1.23;1.10;;;20.70;78.40;;;;;;4981745;28;19982;-80
2022/07/29 00:09:37;;;;;;;1.00;0.93;;;20.60;78.70;;;;;;4981755;28;20016;-80
2022/07/29 00:12:04;;;;;;;3.13;1.10;;;20.60;79.00;;;;;;4977233;28;20420;-81
2022/07/29 00:14:30;;;;;;;2.28;1.10;;;20.60;79.30;;;;;;4973963;29;20033;-80
2022/07/29 00:16:55;;;;;;;0.90;0.90;;;20.50;79.70;;;;;;4993713;28;20014;-80
2022/07/29 00:19:21;;;;;;;1.05;1.02;;;20.50;80.10;;;;;;4997743;28;20041;-81
2022/07/29 00:21:47;;;;;;;1.33;1.23;;;20.50;80.60;;;;;;4991603;28;20302;-79
2022/07/29 00:24:12;;;;;;;1.30;1.20;;;20.50;80.90;;;;;;4992707;28;20027;-80
2022/07/29 00:26:38;;;;;;;1.45;1.25;;;20.50;81.50;;;;;;4981864;28;20046;-80
2022/07/29 00:29:05;;;;;;;1.38;1.27;;;20.50;81.50;;;;;;4971268;28;20122;-81
2022/07/29 00:31:31;;;;;;;1.77;1.63;;;20.40;82.20;;;;;;4969696;28;20050;-81
2022/07/29 00:33:57;;;;;;;1.13;1.13;;;20.40;82.80;;;;;;4970087;28;20031;-81
2022/07/29 00:36:23;;;;;;;1.95;1.42;;;20.40;83.10;;;;;;4977804;28;20042;-82
2022/07/29 00:38:50;;;;;;;1.80;1.45;;;20.40;83.20;;;;;;4987982;28;20026;-80
2022/07/29 00:41:16;;;;;;;2.42;1.40;;;20.40;83.20;;;;;;4982486;28;20067;-80
2022/07/29 00:43:43;;;;;;;1.45;1.35;;;20.40;83.10;;;;;;4980892;28;20031;-81
2022/07/29 00:46:09;;;;;;;1.40;1.30;;;20.40;82.20;;;;;;4976995;28;20042;-81
2022/07/29 00:48:35;;;;;;;1.40;1.27;;;20.40;81.50;;;;;;4976273;28;20088;-81
2022/07/29 00:51:02;;;;;;;1.20;1.10;;;20.50;80.90;;;;;;4976440;28;20129;-82
2022/07/29 00:53:30;;;;;;;0.85;0.85;;;20.50;80.60;;;;;;4987523;28;20046;-82
2022/07/29 00:55:56;;;;;;;1.00;1.00;;;20.50;80.00;;;;;;4989260;28;20034;-82
2022/07/29 00:58:23;;;;;;;1.25;0.98;;;20.50;80.00;;;;;;4989911;28;20042;-82
2022/07/29 01:00:50;;;;;;;2.45;1.13;;;20.50;79.80;;;;;;4988744;28;20027;-82
2022/07/29 01:03:16;;;;;;;1.05;1.00;;;20.50;78.90;;;;;;4988249;28;20090;-82
2022/07/29 01:05:44;;;;;;;0.90;0.90;;;20.50;78.70;;;;;;4980282;28;20054;-81
2022/07/29 01:08:12;;;;;;;1.00;1.00;;;20.60;78.50;;;;;;4974596;28;20107;-82
2022/07/29 01:10:39;;;;;;;0.82;0.82;;;20.60;78.00;;;;;;4968920;29;20039;-81
2022/07/29 01:13:05;;;;;;;1.02;1.02;;;20.60;77.70;;;;;;4968083;29;20441;-82
2022/07/29 01:15:33;;;;;;;1.25;1.08;;;20.70;77.00;;;;;;4969218;28;20019;-82
2022/07/29 01:18:16;;;;;;;1.30;1.20;;;20.70;76.90;;;;;;4976277;28;20018;-81
2022/07/29 01:21:00;;;;;;;0.98;0.98;;;20.70;76.70;;;;;;4987074;28;20026;-82
2022/07/29 01:24:04;;;;;;;1.25;0.85;;;20.70;76.40;;;;;;4987961;28;20036;-81
2022/07/29 01:26:40;;;;;;;1.40;0.95;;;20.70;76.10;;;;;;4964812;29;20058;-82
2022/07/29 01:29:28;;;;;;;0.70;0.70;;;20.70;75.90;;;;;;4982330;28;20131;-81
2022/07/29 01:32:11;;;;;;;1.98;0.80;;;20.70;75.60;;;;;;4987077;28;20046;-81
2022/07/29 01:34:48;;;;;;;0.75;0.75;;;20.70;75.30;;;;;;4985012;28;20023;-81
2022/07/29 01:37:44;;;;;;;0.70;0.70;;;20.70;75.20;;;;;;4987521;28;20018;-81
2022/07/29 01:40:36;;;;;;;0.60;0.60;;;20.70;75.40;;;;;;4970980;29;20401;-82
2022/07/29 01:43:10;;;;;;;0.70;0.70;;;20.80;75.10;;;;;;4967574;29;20035;-82
2022/07/29 01:46:00;;;;;;;0.80;0.80;;;20.70;75.10;;;;;;4969988;28;20114;-82
2022/07/29 01:48:40;;;;;;;0.70;0.70;;;20.70;75.10;;;;;;4981162;28;20022;-82
2022/07/29 01:51:16;;;;;;;0.60;0.60;;;20.70;75.20;;;;;;4987993;28;20023;-81
2022/07/29 01:53:47;;;;;;;0.90;0.90;;;20.70;75.10;;;;;;4987676;28;20027;-82
2022/07/29 01:56:16;;;;;;;0.70;0.70;;;20.70;74.80;;;;;;4982784;28;20023;-82
2022/07/29 01:58:44;;;;;;;0.90;0.90;;;20.70;74.90;;;;;;4968347;28;20046;-82
2022/07/29 02:01:12;;;;;;;0.80;0.80;;;20.70;74.90;;;;;;4968369;28;20091;-82
2022/07/29 02:03:38;;;;;;;0.70;0.70;;;20.70;74.60;;;;;;4968502;28;20027;-82
2022/07/29 02:06:06;;;;;;;0.65;0.65;;;20.60;74.40;;;;;;4976158;28;20052;-80
2022/07/29 02:08:34;;;;;;;0.70;0.70;;;20.60;75.10;;;;;;4987757;28;20074;-81
2022/07/29 02:11:02;;;;;;;0.50;0.50;;;20.60;74.70;;;;;;4987756;28;20057;-81
2022/07/29 02:13:29;;;;;;;0.52;0.52;;;20.60;74.60;;;;;;4986914;28;20077;-80
2022/07/29 02:15:57;;;;;;;0.57;0.57;;;20.60;74.80;;;;;;4980724;28;20586;-81
2022/07/29 02:18:25;;;;;;;2.15;0.50;;;20.60;75.00;;;;;;4979865;28;20353;-81
2022/07/29 02:20:53;;;;;;;0.40;0.40;;;20.60;75.00;;;;;;4985612;28;20032;-81
2022/07/29 02:23:21;;;;;;;0.60;0.60;;;20.60;75.00;;;;;;4987737;28;20096;-81
2022/07/29 02:25:53;;;;;;;0.73;0.73;;;20.50;75.10;;;;;;4986626;28;20053;-82
2022/07/29 02:28:20;;;;;;;0.60;0.60;;;20.50;75.30;;;;;;4985924;28;20046;-81
2022/07/29 02:30:47;;;;;;;2.92;0.60;;;20.50;75.40;;;;;;4987330;28;20112;-81
2022/07/29 02:33:15;;;;;;;0.77;0.77;;;20.50;76.00;;;;;;4987021;28;20086;-81
2022/07/29 02:35:42;;;;;;;0.68;0.68;;;20.50;76.30;;;;;;4986213;28;20030;-81
2022/07/29 02:40:58;;;;;;;0.63;0.63;;;20.40;76.60;;;;;;4986810;28;20054;-81
2022/07/29 02:43:25;;;;;;;0.70;0.70;;;20.40;76.80;;;;;;4987061;28;20026;-81
2022/07/29 02:45:54;;;;;;;0.70;0.70;;;20.30;77.10;;;;;;4988045;28;20042;-80
2022/07/29 02:48:32;;;;;;;0.60;0.60;;;20.30;77.40;;;;;;4980255;28;20023;-80
2022/07/29 02:51:06;;;;;;;0.70;0.70;;;20.30;77.70;;;;;;4972570;28;20090;-81
2022/07/29 02:53:33;;;;;;;0.68;0.68;;;20.30;77.90;;;;;;4988786;28;20023;-80
2022/07/29 02:56:06;;;;;;;0.70;0.70;;;20.30;78.20;;;;;;4993805;28;20014;-80
2022/07/29 02:58:36;;;;;;;0.70;0.70;;;20.20;78.30;;;;;;4980367;28;20034;-80
2022/07/29 03:01:07;;;;;;;0.70;0.70;;;20.20;78.50;;;;;;4973810;29;20031;-80
2022/07/29 03:03:37;;;;;;;0.60;0.60;;;20.10;78.60;;;;;;4974218;28;20029;-80
2022/07/29 03:06:04;;;;;;;0.43;0.43;;;20.00;78.90;;;;;;4974356;28;20039;-80
2022/07/29 03:08:32;;;;;;;0.75;0.75;;;20.00;79.30;;;;;;4975148;28;20103;-80
2022/07/29 03:10:58;;;;;;;0.73;0.73;;;19.90;79.50;;;;;;4969391;29;20070;-79
2022/07/29 03:13:25;;;;;;;0.77;0.77;;;19.90;80.40;;;;;;4969041;28;20054;-80
2022/07/29 03:15:51;;;;;;;0.50;0.50;;;19.90;80.00;;;;;;4974307;28;20102;-79
2022/07/29 03:18:18;;;;;;;1.45;0.93;;;19.80;80.20;;;;;;4983257;28;20022;-80
2022/07/29 03:20:43;;;;;;;0.70;0.70;;;19.70;80.30;;;;;;4993910;28;20011;-80
2022/07/29 03:23:09;;;;;;;0.60;0.60;;;19.70;80.80;;;;;;4993728;28;20086;-80
2022/07/29 03:25:35;;;;;;;1.15;0.80;;;19.60;81.00;;;;;;4993707;28;20023;-80
2022/07/29 03:28:01;;;;;;;0.70;0.70;;;19.60;81.60;;;;;;4988289;28;20034;-80
2022/07/29 03:30:26;;;;;;;0.70;0.70;;;19.60;81.90;;;;;;4970170;28;20087;-79
2022/07/29 03:32:52;;;;;;;0.80;0.80;;;19.50;82.30;;;;;;4969427;29;20038;-81
2022/07/29 03:35:19;;;;;;;0.80;0.80;;;19.50;82.70;;;;;;4975424;28;20026;-81
2022/07/29 03:37:45;;;;;;;2.05;0.82;;;19.40;83.00;;;;;;4976673;28;20031;-80
2022/07/29 03:40:17;;;;;;;0.70;0.70;;;19.40;83.50;;;;;;4993758;28;20035;-80
2022/07/29 03:42:45;;;;;;;0.73;0.73;;;19.40;83.70;;;;;;4993376;28;20026;-81
2022/07/29 03:45:15;;;;;;;1.17;0.88;;;19.30;84.00;;;;;;4994462;28;20069;-80
2022/07/29 03:47:47;;;;;;;0.77;0.65;;;19.30;84.30;;;;;;4993550;28;20046;-80
2022/07/29 03:50:14;;;;;;;1.02;0.90;;;19.30;84.60;;;;;;4991929;28;20054;-81
2022/07/29 03:52:40;;;;;;;0.60;0.60;;;19.20;85.00;;;;;;4993444;28;20188;-80
2022/07/29 03:55:07;;;;;;;1.15;0.82;;;19.20;85.30;;;;;;4992036;28;20023;-81
2022/07/29 03:57:34;;;;;;;0.70;0.70;;;19.20;85.60;;;;;;4987845;28;20435;-81
2022/07/29 04:00:03;;;;;;;1.00;0.90;;;19.20;85.80;;;;;;4987758;28;20039;-82
2022/07/29 04:02:29;;;;;;;0.90;0.90;;;19.20;85.90;;;;;;4989975;28;20078;-81
2022/07/29 04:04:55;;;;;;;1.55;0.85;;;19.20;86.30;;;;;;4972057;28;20043;-82
2022/07/29 04:07:20;;;;;;;0.90;0.90;;;19.20;86.30;;;;;;4969335;29;20054;-81
2022/07/29 04:09:46;;;;;;;2.03;0.80;;;19.20;86.50;;;;;;4978971;28;20047;-79
2022/07/29 04:12:12;;;;;;;0.90;0.90;;;19.20;86.90;;;;;;4996434;28;20125;-81
2022/07/29 04:14:38;;;;;;;0.88;0.80;;;19.20;86.90;;;;;;4996565;28;20021;-79
2022/07/29 04:17:04;;;;;;;0.70;0.70;;;19.20;87.00;;;;;;4984887;28;20034;-83
2022/07/29 04:19:31;;;;;;;0.75;0.75;;;19.20;87.30;;;;;;4980095;28;20039;-83
2022/07/29 04:21:57;;;;;;;0.93;0.93;;;19.20;87.40;;;;;;4979374;28;20034;-83
2022/07/29 04:24:23;;;;;;;1.10;0.82;;;19.30;87.40;;;;;;4978439;28;20027;-84
2022/07/29 04:26:49;;;;;;;1.98;1.00;;;19.30;87.70;;;;;;4977617;28;20037;-84
2022/07/29 04:29:15;;;;;;;0.80;0.80;;;19.20;88.10;;;;;;4979417;28;20061;-83
2022/07/29 04:31:41;;;;;;;0.85;0.85;;;19.30;89.00;;;;;;4962724;28;20031;-84
2022/07/29 04:34:07;;;;;;;1.42;1.20;;;19.30;89.00;;;;;;4959886;29;20035;-84
2022/07/29 04:36:33;;;;;;;1.20;1.13;;;19.30;89.20;;;;;;4962097;28;20038;-84
2022/07/29 04:39:00;;;;;;;1.48;1.38;;;19.40;89.50;;;;;;4962487;28;20042;-85
2022/07/29 04:41:26;;;;;;;1.00;1.00;;;19.40;89.30;;;;;;4964849;28;20038;-84
2022/07/29 04:43:52;;;;;;;1.10;0.93;;;19.60;88.70;;;;;;4977560;28;20086;-83
2022/07/29 04:46:17;;;;;;;2.25;1.08;;;19.70;88.00;;;;;;4978380;28;20030;-82
2022/07/29 04:48:46;;;;;;;1.30;1.20;;;19.80;87.50;;;;;;4987128;28;20025;-81
2022/07/29 04:51:11;;;;;;;1.70;1.20;;;19.90;87.10;;;;;;4984060;28;20031;-81
2022/07/29 04:53:37;;;;;;;3.17;1.40;;;20.10;86.60;;;;;;4979387;28;20031;-81
2022/07/29 04:56:03;;;;;;;1.10;1.00;;;20.20;86.10;;;;;;4979147;28;20027;-83
2022/07/29 04:58:29;;;;;;;2.40;1.50;;;20.30;85.70;;;;;;4979816;28;20086;-83
2022/07/29 05:00:54;;;;;;;2.72;1.50;;;20.40;85.80;;;;;;4987194;28;20038;-80
2022/07/29 05:03:20;;;;;;;2.28;1.52;;;20.50;85.90;;;;;;4967891;28;20058;-82
2022/07/29 05:05:46;;;;;;;1.67;1.20;;;20.60;86.00;;;;;;4961722;28;20054;-82
2022/07/29 05:08:11;;;;;;;1.80;1.30;;;20.60;85.90;;;;;;4961631;28;20429;-81
2022/07/29 05:10:37;;;;;;;2.50;1.40;;;20.70;85.60;;;;;;4964673;28;20063;-80
2022/07/29 05:13:07;;;;;;;1.40;1.30;;;20.70;85.10;;;;;;4981521;28;20027;-83
2022/07/29 05:15:35;;;;;;;2.13;1.45;;;20.60;85.50;;;;;;4979262;28;20452;-83
2022/07/29 05:18:01;;;;;;;2.42;1.10;;;20.70;85.90;;;;;;4980864;28;20444;-82
2022/07/29 05:20:28;;;;;;;1.88;1.40;;;20.70;86.10;;;;;;4980997;28;20042;-80
2022/07/29 05:22:58;;;;;;;1.90;1.27;;;20.70;86.00;;;;;;4979436;28;20027;-80
2022/07/29 05:25:25;;;;;;;1.70;1.60;;;20.70;85.40;;;;;;4979215;28;20022;-81
2022/07/29 05:27:51;;;;;;;2.47;1.17;;;20.70;85.10;;;;;;4982919;28;20015;-81
2022/07/29 05:30:17;;;;;;;5.43;1.05;;;20.70;85.00;;;;;;4982493;28;20547;-81
2022/07/29 05:32:42;;;;;;;1.65;1.55;;;20.80;84.90;;;;;;4972405;28;20038;-82
2022/07/29 05:35:09;;;;;;;2.30;1.80;;;21.00;84.90;;;;;;4962072;29;20066;-82
2022/07/29 05:37:34;;;;;;;1.65;1.50;;;21.90;83.80;;;;;;4963699;28;20023;-81
2022/07/29 05:40:01;;;;;;;2.00;1.40;;;24.10;78.20;;;;;;4962413;28;20049;-81
2022/07/29 05:42:26;;;;;;;1.45;1.35;;;25.90;71.00;;;;;;4961185;28;20054;-81
2022/07/29 05:44:53;;;;;;;1.58;1.48;;;27.20;65.80;;;;;;4959161;28;20098;-80
2022/07/29 05:47:18;;;;;;;1.70;1.20;;;28.00;63.20;;;;;;4958268;28;20028;-81
2022/07/29 05:49:44;;;;;;;0.95;0.82;;;28.70;59.70;;;;;;4975261;28;20102;-81
2022/07/29 05:52:10;;;;;;;0.95;0.95;;;29.20;56.90;;;;;;4975837;28;20023;-81
2022/07/29 05:54:36;;;;;;;1.27;1.15;;;29.40;56.20;;;;;;4977751;28;20512;-81
2022/07/29 05:57:03;;;;;;;1.90;1.08;;;29.70;54.10;;;;;;4976681;28;20433;-82
2022/07/29 05:59:30;;;;;;;0.93;0.80;;;29.30;54.60;;;;;;4979214;28;20031;-81
2022/07/29 06:01:57;;;;;;;1.00;1.00;;;30.00;54.70;;;;;;4977575;28;20519;-82
2022/07/29 06:04:23;;;;;;;0.70;0.70;;;31.70;52.80;;;;;;4979288;28;20033;-81
2022/07/29 06:06:48;;;;;;;1.23;1.02;;;33.00;49.90;;;;;;4979731;28;20023;-82
2022/07/29 06:09:14;;;;;;;2.03;1.08;;;34.00;48.10;;;;;;4972019;28;20115;-81
2022/07/29 06:11:41;;;;;;;1.27;1.10;;;34.70;46.80;;;;;;4960186;28;20031;-83
2022/07/29 06:14:07;;;;;;;1.13;1.13;;;35.00;45.80;;;;;;4959709;28;20058;-82
2022/07/29 06:16:33;;;;;;;1.98;1.20;;;35.10;45.20;;;;;;4960624;28;20126;-82
2022/07/29 06:18:59;;;;;;;1.85;1.00;;;35.10;44.80;;;;;;4969278;28;20093;-82
2022/07/29 06:21:24;;;;;;;1.58;0.82;;;35.00;45.10;;;;;;4979594;28;20039;-82
2022/07/29 06:23:50;;;;;;;1.00;1.00;;;35.40;43.90;;;;;;4977862;28;20022;-81
2022/07/29 06:26:16;;;;;;;1.33;1.23;;;36.00;43.20;;;;;;4979600;28;20027;-83
2022/07/29 06:28:42;;;;;;;1.15;1.10;;;36.20;43.00;;;;;;4973842;28;20030;-83
2022/07/29 06:31:08;;;;;;;1.20;1.17;;;36.60;42.50;;;;;;4982623;28;20197;-85
2022/07/29 06:33:35;;;;;;;1.08;1.05;;;36.80;41.80;;;;;;4978503;28;20475;-83
2022/07/29 06:36:03;;;;;;;1.35;1.25;;;36.80;41.70;;;;;;4979233;28;20038;-82
2022/07/29 06:38:33;;;;;;;1.33;1.30;;;37.00;41.70;;;;;;4979369;28;20309;-85
2022/07/29 06:41:12;;;;;;;1.00;1.00;;;37.20;40.40;;;;;;4976762;28;20126;-84
2022/07/29 06:44:02;;;;;;;1.25;1.25;;;37.00;40.80;;;;;;4979908;28;20049;-85
2022/07/29 06:46:28;;;;;;;1.33;1.23;;;36.70;40.90;;;;;;4977173;28;20102;-82
2022/07/29 06:48:54;;;;;;;1.73;1.10;;;37.10;40.80;;;;;;4982032;28;20061;-83
2022/07/29 06:51:20;;;;;;;1.83;1.50;;;37.30;40.70;;;;;;4980548;28;20030;-82
2022/07/29 06:53:46;;;;;;;1.25;1.10;;;37.40;40.20;;;;;;4981593;28;20049;-82
2022/07/29 06:56:13;;;;;;;1.10;1.10;;;37.30;40.10;;;;;;4983408;28;20061;-81
2022/07/29 06:58:39;;;;;;;1.30;1.30;;;37.40;40.50;;;;;;4982813;28;20181;-83
2022/07/29 07:01:06;;;;;;;1.50;1.23;;;37.50;40.00;;;;;;4980273;28;20031;-81
2022/07/29 07:03:32;;;;;;;1.20;1.20;;;37.50;39.70;;;;;;4980115;28;20037;-82
2022/07/29 07:05:58;;;;;;;1.30;1.20;;;37.20;40.20;;;;;;4978476;28;20441;-83
2022/07/29 07:08:24;;;;;;;1.35;1.25;;;37.00;40.40;;;;;;4978480;28;20046;-83
2022/07/29 07:10:50;;;;;;;1.20;1.20;;;36.80;40.80;;;;;;4977143;28;20019;-84
2022/07/29 07:13:35;;;;;;;2.05;1.20;;;36.80;41.10;;;;;;4985083;28;20035;-83
2022/07/29 07:16:05;;;;;;;1.30;1.20;;;36.70;40.10;;;;;;4987955;28;20030;-82
2022/07/29 07:18:52;;;;;;;1.10;1.00;;;35.40;40.50;;;;;;4978406;28;20069;-83
2022/07/29 07:21:49;;;;;;;1.48;1.38;;;32.50;43.30;;;;;;4976652;28;20041;-82
2022/07/29 07:25:00;;;;;;;1.00;1.00;;;29.90;47.60;;;;;;4961077;29;20042;-81
2022/07/29 07:28:04;;;;;;;2.38;1.10;;;27.90;51.40;;;;;;4962087;28;20039;-82
2022/07/29 07:30:31;;;;;;;1.58;1.30;;;26.50;54.70;;;;;;4965786;28;20111;-83
2022/07/29 07:32:57;;;;;;;1.48;1.20;;;25.70;56.60;;;;;;4973238;29;20019;-84
2022/07/29 07:35:24;;;;;;;2.80;1.38;;;;;;;;;;4948575;29;20040;-84
2022/07/29 07:37:49;;;;;;;1.70;1.60;;;24.90;57.80;;;;;;4963913;28;20027;-82
2022/07/29 07:40:16;;;;;;;2.38;1.50;;;24.80;59.20;;;;;;4978568;28;20091;-83
2022/07/29 07:42:42;;;;;;;2.60;1.40;;;24.70;59.70;;;;;;4990788;28;20046;-82
2022/07/29 07:45:09;;;;;;;1.45;1.35;;;24.70;60.00;;;;;;4984918;28;20027;-82
2022/07/29 07:47:36;;;;;;;1.58;1.48;;;24.60;59.40;;;;;;4987717;28;20387;-83
2022/07/29 07:50:02;;;;;;;1.33;1.23;;;24.60;58.70;;;;;;4991530;28;20041;-82
2022/07/29 07:52:28;;;;;;;1.63;1.52;;;24.60;58.10;;;;;;4987540;28;20135;-82
2022/07/29 07:54:53;;;;;;;2.28;1.75;;;24.60;58.40;;;;;;4989480;28;20026;-83
2022/07/29 07:57:19;;;;;;;1.75;1.45;;;24.70;58.60;;;;;;4990519;28;20050;-84
2022/07/29 07:59:45;;;;;;;2.67;1.55;;;24.70;58.50;;;;;;4995228;28;20078;-84
2022/07/29 08:02:11;;;;;;;1.33;1.23;;;24.80;58.70;;;;;;4996118;28;20054;-82
2022/07/29 08:04:50;;;;;;;1.55;1.25;;;24.80;58.60;;;;;;4998724;28;20030;-83
2022/07/29 08:07:16;;;;;;;1.27;1.23;;;24.90;58.10;;;;;;4998590;28;20055;-83
2022/07/29 08:09:42;;;;;;;1.30;1.20;;;25.00;58.30;;;;;;4994205;28;20023;-82
2022/07/29 08:12:09;;;;;;;1.33;1.30;;;25.10;58.10;;;;;;5001814;28;20094;-81
2022/07/29 08:14:35;;;;;;;2.03;1.30;;;25.20;57.20;;;;;;4998773;28;20053;-82
2022/07/29 08:17:00;;;;;;;1.67;1.45;;;25.30;57.50;;;;;;4983555;28;20035;-83
2022/07/29 08:19:27;;;;;;;1.40;1.30;;;25.30;57.20;;;;;;4977576;28;20495;-82
2022/07/29 08:21:53;;;;;;;2.83;1.15;;;25.30;57.30;;;;;;4973127;28;20031;-83
2022/07/29 08:28:01;;;;;;;1.10;1.08;;;25.50;56.90;;;;;;4961565;29;20042;-82
2022/07/29 08:30:47;;;;;;;1.75;1.20;;;25.60;57.30;;;;;;4950889;29;20019;-81
2022/07/29 08:33:12;;;;;;;2.65;1.40;;;25.80;56.70;;;;;;4989369;28;20073;-80
2022/07/29 08:35:39;;;;;;;1.73;1.42;;;25.90;56.30;;;;;;4996089;28;20022;-80
2022/07/29 08:38:05;;;;;;;3.20;1.50;;;26.10;55.60;;;;;;4997593;28;20147;-82
2022/07/29 08:40:31;;;;;;;1.90;1.50;;;26.30;55.40;;;;;;4995830;28;20027;-82
2022/07/29 08:42:57;;;;;;;1.50;1.40;;;26.30;55.60;;;;;;4996711;28;20022;-81
2022/07/29 08:45:24;;;;;;;1.80;1.70;;;26.50;55.40;;;;;;4996559;28;20234;-82
2022/07/29 08:47:50;;;;;;;2.40;1.70;;;26.70;54.60;;;;;;4996608;28;20050;-82
2022/07/29 08:50:16;;;;;;;2.17;1.40;;;26.80;54.80;;;;;;4994614;28;20045;-81
2022/07/29 08:52:41;;;;;;;2.17;1.98;;;27.00;54.20;;;;;;4997144;28;20038;-82
2022/07/29 08:55:09;;;;;;;6.53;1.67;;;27.20;54.30;;;;;;4997842;28;20078;-85
2022/07/29 08:57:36;;;;;;;1.60;1.50;;;27.50;53.30;;;;;;4998602;28;20034;-85
2022/07/29 09:00:06;;;;;;;5.15;1.73;;;27.50;52.80;;;;;;5014154;28;20026;-86
2022/07/29 09:02:38;;;;;;;1.58;1.48;;;27.50;53.30;;;;;;4980789;28;20364;-84
2022/07/29 09:05:05;;;;;;;1.88;1.77;;;27.70;53.30;;;;;;4966701;28;20030;-83
2022/07/29 09:07:31;;;;;;;2.28;1.75;;;27.90;53.00;;;;;;4965006;28;20034;-82
2022/07/29 09:09:56;;;;;;;1.73;1.60;;;27.90;52.80;;;;;;4965261;28;20027;-82
2022/07/29 09:12:24;;;;;;;2.00;1.58;;;27.90;52.70;;;;;;4965590;28;20027;-83
2022/07/29 09:14:50;;;;;;;5.57;1.70;;;28.00;52.80;;;;;;4970038;28;20026;-84
2022/07/29 09:17:17;;;;;;;1.73;1.63;;;28.20;52.90;;;;;;4971308;29;20122;-85
2022/07/29 09:19:43;;;;;;;1.50;1.40;;;28.40;52.60;;;;;;4986249;28;20077;-85
2022/07/29 09:22:10;;;;;;;1.90;1.40;;;28.70;52.40;;;;;;4985464;28;20027;-84
2022/07/29 09:24:38;;;;;;;2.58;1.40;;;29.00;51.50;;;;;;4987800;28;20050;-85
2022/07/29 09:27:11;;;;;;;2.25;1.80;;;29.20;51.00;;;;;;4985332;28;20023;-85
2022/07/29 09:29:38;;;;;;;3.55;1.80;;;29.30;50.00;;;;;;4985292;28;20054;-85
2022/07/29 09:32:09;;;;;;;1.48;1.38;;;29.30;50.50;;;;;;4986194;28;20015;-84
2022/07/29 09:34:35;;;;;;;2.85;1.70;;;29.30;51.20;;;;;;4987955;28;20022;-87
2022/07/29 09:37:00;;;;;;;3.25;2.30;;;29.60;50.70;;;;;;4997060;28;20061;-85
2022/07/29 09:39:30;;;;;;;2.88;2.42;;;29.80;49.80;;;;;;4998839;28;20023;-85
2022/07/29 09:41:58;;;;;;;1.95;1.83;;;29.60;50.40;;;;;;4983129;28;20020;-85
2022/07/29 09:44:24;;;;;;;3.97;1.90;;;29.30;50.40;;;;;;4965503;28;20035;-85
2022/07/29 09:46:53;;;;;;;2.97;2.20;;;28.90;51.10;;;;;;4966092;29;20035;-84
2022/07/29 09:49:19;;;;;;;3.92;2.00;;;28.90;51.40;;;;;;4975667;28;20031;-84
2022/07/29 09:51:45;;;;;;;3.35;2.00;;;28.70;51.20;;;;;;4984452;28;20034;-85
2022/07/29 09:54:27;;;;;;;2.25;1.80;;;28.50;51.70;;;;;;4985218;28;20034;-86
2022/07/29 09:56:54;;;;;;;3.08;1.90;;;28.10;52.30;;;;;;4982362;28;20041;-83
2022/07/29 09:59:22;;;;;;;2.33;2.17;;;27.70;53.60;;;;;;4979105;28;20034;-82
2022/07/29 10:01:50;;;;;;;2.13;1.92;;;27.80;54.20;;;;;;4985347;28;20022;-85
2022/07/29 10:04:17;;;;;;;1.60;1.50;;;27.80;54.00;;;;;;4981577;28;20050;-84
2022/07/29 10:06:57;;;;;;;2.42;1.90;;;28.00;53.70;;;;;;4988320;28;20018;-85
2022/07/29 10:09:23;;;;;;;1.92;1.80;;;28.10;53.60;;;;;;4996574;28;20037;-85
2022/07/29 10:12:06;;;;;;;2.45;1.70;;;28.20;53.60;;;;;;5004384;28;20018;-85
2022/07/29 10:14:33;;;;;;;2.45;2.05;;;28.40;53.30;;;;;;4994847;28;20023;-85
2022/07/29 10:17:03;;;;;;;3.67;3.00;;;28.40;53.00;;;;;;4998745;28;20034;-84
2022/07/29 10:19:30;;;;;;;4.07;2.05;;;28.50;53.00;;;;;;4984289;28;20034;-84
2022/07/29 10:22:01;;;;;;;2.45;2.25;;;28.40;52.70;;;;;;5001537;28;20111;-84
2022/07/29 10:24:29;;;;;;;2.45;2.05;;;28.30;52.80;;;;;;5003178;28;20110;-83
2022/07/29 10:26:56;;;;;;;2.35;2.15;;;28.20;53.40;;;;;;4990115;28;20030;-84
2022/07/29 10:29:23;;;;;;;2.88;1.90;;;28.10;53.20;;;;;;4982149;28;20031;-84
2022/07/29 10:32:02;;;;;;;6.88;2.25;;;28.30;53.40;;;;;;4983542;28;20023;-84
2022/07/29 10:34:46;;;;;;;2.25;2.08;;;28.40;52.70;;;;;;4982996;28;20443;-84
2022/07/29 10:37:33;;;;;;;3.70;2.10;;;28.30;52.70;;;;;;4975940;28;20031;-84
2022/07/29 10:43:14;;;;;;;3.47;2.03;;;28.20;52.80;;;;;;4963490;29;20050;-84
2022/07/29 10:45:40;;;;;;;2.70;2.30;;;28.10;52.90;;;;;;4966074;28;20015;-85
2022/07/29 10:48:06;;;;;;;2.03;1.92;;;28.00;53.00;;;;;;4967448;28;20126;-85
2022/07/29 10:50:55;;;;;;;1.90;1.80;;;27.90;53.40;;;;;;4984342;28;20041;-85
2022/07/29 10:53:24;;;;;;;2.30;2.10;;;27.90;53.80;;;;;;4986172;28;20399;-84
2022/07/29 10:55:51;;;;;;;4.00;2.20;;;28.20;53.30;;;;;;4988310;28;20142;-83
2022/07/29 10:58:23;;;;;;;4.05;1.77;;;28.70;51.80;;;;;;4987284;28;20068;-83
2022/07/29 11:00:49;;;;;;;;;;;29.00;51.50;;;;;;4980365;28;20031;-84
2022/07/29 11:03:40;;;;;;;3.85;1.88;;;29.20;51.00;;;;;;4965056;28;19949;-84
2022/07/29 11:06:06;;;;;;;2.58;2.03;;;28.90;51.20;;;;;;4975237;29;20003;-84
2022/07/29 11:08:32;;;;;;;2.05;1.90;;;28.80;52.00;;;;;;4973953;29;20040;-84
2022/07/29 11:11:30;;;;;;;1.90;1.80;;;29.00;51.50;;;;;;4968955;28;20087;-84
2022/07/29 11:13:56;;;;;;;3.30;2.10;;;29.30;51.30;;;;;;4973765;28;20055;-84
2022/07/29 11:16:22;;;;;;;2.17;1.95;;;29.60;50.40;;;;;;4976421;28;20027;-85
2022/07/29 11:19:10;;;;;;;1.83;1.70;;;29.90;49.60;;;;;;4970517;28;20027;-84
2022/07/29 11:21:37;;;;;;;2.60;2.17;;;30.00;49.90;;;;;;4985682;28;20031;-85
2022/07/29 11:24:14;;;;;;;2.03;1.92;;;30.00;49.70;;;;;;4983290;28;20050;-83
2022/07/29 11:26:41;;;;;;;3.90;2.40;;;30.10;49.80;;;;;;4982216;28;20023;-84
2022/07/29 11:29:22;;;;;;;3.92;1.90;;;30.30;48.80;;;;;;4982133;28;20027;-83
2022/07/29 11:31:55;;;;;;;3.78;2.05;;;30.40;47.90;;;;;;4981880;28;20023;-84
2022/07/29 11:34:27;;;;;;;1.85;1.75;;;30.40;48.00;;;;;;4981596;28;20027;-84
2022/07/29 11:37:13;;;;;;;2.92;1.90;;;30.80;47.40;;;;;;4981309;28;20022;-84
2022/07/29 11:39:45;;;;;;;4.25;1.80;;;30.80;46.20;;;;;;4979519;28;20060;-84
2022/07/29 11:42:20;;;;;;;2.67;1.70;;;30.70;46.80;;;;;;4979829;28;20105;-85
2022/07/29 11:45:00;;;;;;;5.70;1.98;;;30.60;47.30;;;;;;4980424;28;20026;-84
2022/07/29 11:47:27;;;;;;;2.00;1.90;;;30.40;47.30;;;;;;4980385;28;20019;-84
2022/07/29 11:49:54;;;;;;;1.70;1.60;;;30.10;48.70;;;;;;4978484;28;20420;-83
2022/07/29 11:52:20;;;;;;;4.57;2.10;;;29.80;48.10;;;;;;4978695;28;20080;-84
2022/07/29 11:54:50;;;;;;;3.30;2.17;;;29.70;48.60;;;;;;4978319;28;20030;-84
2022/07/29 11:57:20;;;;;;;3.00;2.00;;;29.80;48.10;;;;;;4977736;28;20023;-85
2022/07/29 11:59:47;;;;;;;2.58;1.90;;;30.00;47.90;;;;;;4980506;28;20019;-85
2022/07/29 12:02:14;;;;;;;4.28;1.92;;;29.80;47.70;;;;;;4980442;28;20099;-85
2022/07/29 12:04:54;;;;;;;2.33;1.73;;;29.70;47.10;;;;;;4978467;28;20106;-84
2022/07/29 12:07:31;;;;;;;1.70;1.60;;;29.70;47.10;;;;;;4976367;28;20110;-84
2022/07/29 12:10:17;;;;;;;2.85;1.83;;;29.70;47.60;;;;;;4987951;28;20074;-85
2022/07/29 12:12:50;;;;;;;2.28;1.90;;;29.70;46.70;;;;;;4986584;28;20129;-84
2022/07/29 12:15:19;;;;;;;2.47;1.92;;;29.80;46.80;;;;;;4986052;28;20038;-85
2022/07/29 12:17:45;;;;;;;2.40;2.08;;;29.80;46.90;;;;;;4987759;28;20015;-84
2022/07/29 12:20:12;;;;;;;2.55;1.70;;;29.80;47.30;;;;;;4998424;28;20049;-84
2022/07/29 12:22:43;;;;;;;2.92;1.40;;;30.00;47.40;;;;;;4995665;28;20026;-83
2022/07/29 12:25:15;;;;;;;2.50;1.80;;;29.90;47.60;;;;;;4993413;28;20050;-85
2022/07/29 12:27:43;;;;;;;3.50;2.03;;;29.80;47.90;;;;;;4979564;28;20031;-86
2022/07/29 12:30:11;;;;;;;3.15;1.70;;;29.80;48.20;;;;;;4979611;28;20023;-86
2022/07/29 12:32:48;;;;;;;3.72;1.90;;;29.80;47.90;;;;;;4978815;28;20491;-85
2022/07/29 12:35:20;;;;;;;1.98;1.70;;;29.70;48.20;;;;;;4976993;28;20126;-86
2022/07/29 12:37:48;;;;;;;3.67;1.88;;;29.60;48.10;;;;;;4972654;28;20172;-85
2022/07/29 12:40:16;;;;;;;3.40;1.92;;;29.50;47.90;;;;;;4980512;28;20026;-85
2022/07/29 12:43:20;;;;;;;2.80;1.95;;;29.50;48.30;;;;;;4985201;28;20035;-86
2022/07/29 12:45:53;;;;;;;5.10;2.20;;;29.50;48.60;;;;;;4977680;28;20106;-87
2022/07/29 12:48:39;;;;;;;4.03;1.90;;;29.60;48.70;;;;;;4980158;28;20115;-86
2022/07/29 12:51:07;;;;;;;4.28;1.65;;;29.60;48.20;;;;;;4978341;28;20102;-86
2022/07/29 12:53:33;;;;;;;3.53;1.77;;;29.50;48.50;;;;;;4980322;28;20369;-87
2022/07/29 12:56:02;;;;;;;2.85;2.08;;;29.50;49.20;;;;;;4980465;28;20438;-86
2022/07/29 12:58:29;;;;;;;2.55;1.88;;;29.40;49.00;;;;;;4979824;28;20364;-86
2022/07/29 13:01:03;;;;;;;3.75;2.00;;;29.10;49.40;;;;;;4985777;28;20026;-85
2022/07/29 13:03:45;;;;;;;2.20;1.75;;;29.00;49.50;;;;;;4983927;28;20041;-86
2022/07/29 13:06:33;;;;;;;2.53;1.92;;;28.70;48.90;;;;;;4980247;28;20770;-86
2022/07/29 13:09:22;;;;;;;5.15;2.20;;;28.50;49.60;;;;;;4979948;28;20517;-86
2022/07/29 13:11:50;;;;;;;2.25;2.05;;;28.20;50.20;;;;;;4980507;28;20109;-85